sensor_id;sensor_type;location;lat;lon;timestamp;pressure;altitude;pressure_sealevel;temperature;humidity
33288;BME280;19657;50.452;30.372;2023-06-10T00:01:38;84064.38;;;-144.73;48.22
33288;BME280;19657;50.452;30.372;2023-06-10T00:04:24;84093.23;;;-144.73;49.10
33288;BME280;19657;50.452;30.372;2023-06-10T00:07:10;84090.86;;;-144.73;49.76
33288;BME280;19657;50.452;30.372;2023-06-10T00:09:56;84101.92;;;-144.73;50.13
33288;BME280;19657;50.452;30.372;2023-06-10T00:12:43;84110.23;;;-144.73;50.38
33288;BME280;19657;50.452;30.372;2023-06-10T00:15:29;84142.64;;;-144.73;50.80
33288;BME280;19657;50.452;30.372;2023-06-10T00:18:15;84145.02;;;-144.73;50.81
33288;BME280;19657;50.452;30.372;2023-06-10T00:21:02;84141.45;;;-144.73;51.12
33288;BME280;19657;50.452;30.372;2023-06-10T00:23:51;84160.42;;;-144.73;51.53
33288;BME280;19657;50.452;30.372;2023-06-10T00:26:41;84163.98;;;-144.73;51.75
33288;BME280;19657;50.452;30.372;2023-06-10T00:29:27;84183.34;;;-144.73;51.99
33288;BME280;19657;50.452;30.372;2023-06-10T00:32:13;84191.26;;;-144.73;52.29
33288;BME280;19657;50.452;30.372;2023-06-10T00:34:59;84187.70;;;-144.73;52.74
33288;BME280;19657;50.452;30.372;2023-06-10T00:37:45;84197.98;;;-144.73;52.77
33288;BME280;19657;50.452;30.372;2023-06-10T00:40:38;84204.70;;;-144.73;53.08
33288;BME280;19657;50.452;30.372;2023-06-10T00:43:25;84206.67;;;-144.73;53.19
33288;BME280;19657;50.452;30.372;2023-06-10T00:46:11;84207.08;;;-144.73;53.34
33288;BME280;19657;50.452;30.372;2023-06-10T00:48:57;84221.30;;;-144.73;53.63
33288;BME280;19657;50.452;30.372;2023-06-10T00:51:44;84222.09;;;-144.73;54.02
33288;BME280;19657;50.452;30.372;2023-06-10T00:54:30;84231.97;;;-144.73;54.41
33288;BME280;19657;50.452;30.372;2023-06-10T00:57:16;84243.83;;;-144.73;54.49
33288;BME280;19657;50.452;30.372;2023-06-10T01:00:02;84262.41;;;-144.73;54.61
33288;BME280;19657;50.452;30.372;2023-06-10T01:02:53;84267.15;;;-144.73;54.95
33288;BME280;19657;50.452;30.372;2023-06-10T01:05:39;84276.63;;;-144.73;55.37
33288;BME280;19657;50.452;30.372;2023-06-10T01:11:47;84277.83;;;-144.73;56.10
33288;BME280;19657;50.452;30.372;2023-06-10T01:14:38;84278.60;;;-144.73;56.78
33288;BME280;19657;50.452;30.372;2023-06-10T01:17:24;84301.14;;;-144.73;57.36
33288;BME280;19657;50.452;30.372;2023-06-10T01:20:13;84311.81;;;-144.73;57.75
33288;BME280;19657;50.452;30.372;2023-06-10T01:23:00;84299.56;;;-144.73;58.03
33288;BME280;19657;50.452;30.372;2023-06-10T01:25:57;84337.52;;;-144.73;57.89
33288;BME280;19657;50.452;30.372;2023-06-10T01:34:44;84342.64;;;-144.73;58.10
33288;BME280;19657;50.452;30.372;2023-06-10T01:37:32;84334.73;;;-144.73;58.33
33288;BME280;19657;50.452;30.372;2023-06-10T01:40:19;84358.45;;;-144.73;58.57
33288;BME280;19657;50.452;30.372;2023-06-10T01:43:05;84344.23;;;-144.73;58.79
33288;BME280;19657;50.452;30.372;2023-06-10T01:45:52;84343.83;;;-144.73;58.82
33288;BME280;19657;50.452;30.372;2023-06-10T01:48:38;84342.64;;;-144.73;58.97
33288;BME280;19657;50.452;30.372;2023-06-10T01:51:24;84354.50;;;-144.73;59.09
33288;BME280;19657;50.452;30.372;2023-06-10T01:54:11;84343.83;;;-144.73;58.98
33288;BME280;19657;50.452;30.372;2023-06-10T01:56:57;84339.48;;;-144.73;59.17
33288;BME280;19657;50.452;30.372;2023-06-10T01:59:43;84354.50;;;-144.73;59.36
33288;BME280;19657;50.452;30.372;2023-06-10T02:02:30;84350.55;;;-144.73;59.26
33288;BME280;19657;50.452;30.372;2023-06-10T02:05:17;84364.78;;;-144.73;59.47
33288;BME280;19657;50.452;30.372;2023-06-10T02:08:04;84360.43;;;-144.73;59.79
33288;BME280;19657;50.452;30.372;2023-06-10T02:10:50;84366.75;;;-144.73;59.76
33288;BME280;19657;50.452;30.372;2023-06-10T02:13:38;84360.04;;;-144.73;59.47
33288;BME280;19657;50.452;30.372;2023-06-10T02:16:24;84369.52;;;-144.73;58.80
33288;BME280;19657;50.452;30.372;2023-06-10T02:19:10;84353.32;;;-144.73;58.38
33288;BME280;19657;50.452;30.372;2023-06-10T02:21:56;84350.15;;;-144.73;58.23
33288;BME280;19657;50.452;30.372;2023-06-10T02:24:42;84345.41;;;-144.73;58.06
33288;BME280;19657;50.452;30.372;2023-06-10T02:27:28;84333.16;;;-144.73;57.59
33288;BME280;19657;50.452;30.372;2023-06-10T02:30:14;84312.20;;;-144.73;56.80
33288;BME280;19657;50.452;30.372;2023-06-10T02:33:01;84296.39;;;-144.73;56.25
33288;BME280;19657;50.452;30.372;2023-06-10T02:35:47;84284.14;;;-144.73;55.43
33288;BME280;19657;50.452;30.372;2023-06-10T02:38:34;84279.40;;;-144.73;55.20
33288;BME280;19657;50.452;30.372;2023-06-10T02:41:20;84270.70;;;-144.73;55.24
33288;BME280;19657;50.452;30.372;2023-06-10T02:44:08;84268.33;;;-144.73;55.08
33288;BME280;19657;50.452;30.372;2023-06-10T02:46:54;84258.45;;;-144.73;55.32
33288;BME280;19657;50.452;30.372;2023-06-10T02:49:40;84261.61;;;-144.73;55.64
33288;BME280;19657;50.452;30.372;2023-06-10T02:52:28;84271.10;;;-144.73;55.51
33288;BME280;19657;50.452;30.372;2023-06-10T02:55:14;84264.77;;;-144.73;55.56
33288;BME280;19657;50.452;30.372;2023-06-10T02:58:04;84262.80;;;-144.73;55.54
33288;BME280;19657;50.452;30.372;2023-06-10T03:00:50;84262.80;;;-144.73;55.55
33288;BME280;19657;50.452;30.372;2023-06-10T03:03:36;84260.42;;;-144.73;55.42
33288;BME280;19657;50.452;30.372;2023-06-10T03:06:29;84254.89;;;-144.73;55.22
33288;BME280;19657;50.452;30.372;2023-06-10T03:09:23;84268.33;;;-144.73;55.68
33288;BME280;19657;50.452;30.372;2023-06-10T03:12:11;84262.40;;;-144.73;56.48
33288;BME280;19657;50.452;30.372;2023-06-10T03:15:01;84287.30;;;-144.73;56.82
33288;BME280;19657;50.452;30.372;2023-06-10T03:17:48;84298.37;;;-144.73;57.34
33288;BME280;19657;50.452;30.372;2023-06-10T03:20:34;84297.18;;;-144.73;58.08
33288;BME280;19657;50.452;30.372;2023-06-10T03:23:25;84316.95;;;-144.73;58.64
33288;BME280;19657;50.452;30.372;2023-06-10T03:26:13;84324.85;;;-144.73;59.04
33288;BME280;19657;50.452;30.372;2023-06-10T03:29:01;84333.15;;;-144.73;59.29
33288;BME280;19657;50.452;30.372;2023-06-10T03:31:47;84348.17;;;-144.73;59.45
33288;BME280;19657;50.452;30.372;2023-06-10T03:34:34;84338.30;;;-144.73;59.33
33288;BME280;19657;50.452;30.372;2023-06-10T03:37:20;84358.84;;;-144.73;59.44
33288;BME280;19657;50.452;30.372;2023-06-10T03:40:07;84351.73;;;-144.73;59.14
33288;BME280;19657;50.452;30.372;2023-06-10T03:42:55;84360.43;;;-144.73;59.12
33288;BME280;19657;50.452;30.372;2023-06-10T03:45:41;84368.73;;;-144.73;59.33
33288;BME280;19657;50.452;30.372;2023-06-10T03:48:28;84372.29;;;-144.73;59.51
33288;BME280;19657;50.452;30.372;2023-06-10T03:51:13;84362.41;;;-144.73;59.45
33288;BME280;19657;50.452;30.372;2023-06-10T03:53:59;84347.78;;;-144.73;59.24
33288;BME280;19657;50.452;30.372;2023-06-10T03:56:46;84349.36;;;-144.73;58.86
33288;BME280;19657;50.452;30.372;2023-06-10T03:59:33;84315.36;;;-144.73;58.68
33288;BME280;19657;50.452;30.372;2023-06-10T04:02:19;84290.86;;;-144.73;58.18
33288;BME280;19657;50.452;30.372;2023-06-10T04:05:05;84278.21;;;-144.73;57.64
33288;BME280;19657;50.452;30.372;2023-06-10T04:07:52;84257.27;;;-144.73;57.29
33288;BME280;19657;50.452;30.372;2023-06-10T04:10:38;84207.85;;;-144.73;56.90
33288;BME280;19657;50.452;30.372;2023-06-10T04:13:24;84204.30;;;-144.73;56.42
33288;BME280;19657;50.452;30.372;2023-06-10T04:16:12;84188.89;;;-144.73;56.20
33288;BME280;19657;50.452;30.372;2023-06-10T04:18:59;84159.23;;;-144.73;55.70
33288;BME280;19657;50.452;30.372;2023-06-10T04:21:45;84133.95;;;-144.73;55.09
33288;BME280;19657;50.452;30.372;2023-06-10T04:24:31;84112.20;;;-144.73;54.55
33288;BME280;19657;50.452;30.372;2023-06-10T04:27:17;84107.46;;;-144.73;54.09
33288;BME280;19657;50.452;30.372;2023-06-10T04:30:03;84086.52;;;-144.73;53.96
33288;BME280;19657;50.452;30.372;2023-06-10T04:32:54;84079.40;;;-144.73;53.48
33288;BME280;19657;50.452;30.372;2023-06-10T04:35:40;84059.64;;;-144.73;53.39
33288;BME280;19657;50.452;30.372;2023-06-10T04:38:27;84053.71;;;-144.73;53.10
33288;BME280;19657;50.452;30.372;2023-06-10T04:41:13;84059.24;;;-144.73;52.89
33288;BME280;19657;50.452;30.372;2023-06-10T04:44:00;84045.02;;;-144.73;52.92
33288;BME280;19657;50.452;30.372;2023-06-10T04:46:45;84014.19;;;-144.73;52.48
33288;BME280;19657;50.452;30.372;2023-06-10T04:49:32;84005.48;;;-144.73;52.22
33288;BME280;19657;50.452;30.372;2023-06-10T04:52:20;83988.89;;;-144.73;51.80
33288;BME280;19657;50.452;30.372;2023-06-10T04:55:07;83969.13;;;-144.73;51.69
33288;BME280;19657;50.452;30.372;2023-06-10T04:57:54;83957.27;;;-144.73;51.40
33288;BME280;19657;50.452;30.372;2023-06-10T05:00:40;83932.38;;;-144.73;51.14
33288;BME280;19657;50.452;30.372;2023-06-10T05:03:26;83923.28;;;-144.73;51.01
33288;BME280;19657;50.452;30.372;2023-06-10T05:06:12;83907.48;;;-144.73;50.78
33288;BME280;19657;50.452;30.372;2023-06-10T05:08:58;83927.63;;;-144.73;51.02
33288;BME280;19657;50.452;30.372;2023-06-10T05:11:44;83933.55;;;-144.73;51.36
33288;BME280;19657;50.452;30.372;2023-06-10T05:14:30;83916.96;;;-144.73;51.31
33288;BME280;19657;50.452;30.372;2023-06-10T05:17:17;83883.76;;;-144.73;50.59
33288;BME280;19657;50.452;30.372;2023-06-10T05:20:04;83843.45;;;-144.73;49.88
33288;BME280;19657;50.452;30.372;2023-06-10T05:22:50;83822.10;;;-144.73;49.83
33288;BME280;19657;50.452;30.372;2023-06-10T05:25:36;83807.48;;;-144.73;49.37
33288;BME280;19657;50.452;30.372;2023-06-10T05:28:22;83811.04;;;-144.73;49.38
33288;BME280;19657;50.452;30.372;2023-06-10T05:31:08;83777.05;;;-144.73;49.00
33288;BME280;19657;50.452;30.372;2023-06-10T05:33:55;83733.98;;;-144.73;48.71
33288;BME280;19657;50.452;30.372;2023-06-10T05:36:41;83730.02;;;-144.73;48.49
33288;BME280;19657;50.452;30.372;2023-06-10T05:39:27;83669.16;;;-144.73;47.69
33288;BME280;19657;50.452;30.372;2023-06-10T05:42:13;83603.55;;;-144.73;46.86
33288;BME280;19657;50.452;30.372;2023-06-10T05:44:59;83533.20;;;-144.73;46.20
33288;BME280;19657;50.452;30.372;2023-06-10T05:47:45;83478.67;;;-144.73;45.45
33288;BME280;19657;50.452;30.372;2023-06-10T05:50:31;83413.46;;;-144.73;44.45
33288;BME280;19657;50.452;30.372;2023-06-10T05:53:23;83349.45;;;-144.73;43.91
33288;BME280;19657;50.452;30.372;2023-06-10T05:56:10;83237.22;;;-144.73;43.62
33288;BME280;19657;50.452;30.372;2023-06-10T05:58:56;83211.93;;;-144.73;42.91
33288;BME280;19657;50.452;30.372;2023-06-10T06:01:41;83173.99;;;-144.73;42.64
33288;BME280;19657;50.452;30.372;2023-06-10T06:04:27;83141.98;;;-144.73;42.22
33288;BME280;19657;50.452;30.372;2023-06-10T06:07:14;83122.63;;;-144.73;41.99
33288;BME280;19657;50.452;30.372;2023-06-10T06:10:00;83101.68;;;-144.73;41.88
33288;BME280;19657;50.452;30.372;2023-06-10T06:12:46;82906.48;;;-144.73;41.61
33288;BME280;19657;50.452;30.372;2023-06-10T06:15:32;82873.69;;;-144.73;40.59
33288;BME280;19657;50.452;30.372;2023-06-10T06:18:18;82572.21;;;-144.73;39.46
33288;BME280;19657;50.452;30.372;2023-06-10T06:21:04;82569.05;;;-144.73;38.29
33288;BME280;19657;50.452;30.372;2023-06-10T06:23:50;82263.26;;;-144.73;37.43
33288;BME280;19657;50.452;30.372;2023-06-10T06:26:36;82096.16;;;-144.73;36.00
33288;BME280;19657;50.452;30.372;2023-06-10T06:29:22;81991.07;;;-144.73;35.44
33288;BME280;19657;50.452;30.372;2023-06-10T06:32:08;81999.36;;;-144.73;34.93
33288;BME280;19657;50.452;30.372;2023-06-10T06:34:55;82110.38;;;-144.73;34.65
33288;BME280;19657;50.452;30.372;2023-06-10T06:37:40;82079.16;;;-144.73;34.89
33288;BME280;19657;50.452;30.372;2023-06-10T06:40:36;81923.91;;;-144.73;34.88
33288;BME280;19657;50.452;30.372;2023-06-10T06:43:22;81738.25;;;-144.73;34.50
33288;BME280;19657;50.452;30.372;2023-06-10T06:46:34;81525.73;;;-144.73;33.38
33288;BME280;19657;50.452;30.372;2023-06-10T06:49:20;81478.73;;;-144.73;32.77
33288;BME280;19657;50.452;30.372;2023-06-10T06:52:06;81417.90;;;-144.73;32.42
33288;BME280;19657;50.452;30.372;2023-06-10T06:54:53;81552.60;;;-144.73;32.65
33288;BME280;19657;50.452;30.372;2023-06-10T07:00:21;81462.17;;;-144.73;32.01
33288;BME280;19657;50.452;30.372;2023-06-10T07:03:08;81109.83;;;-144.73;31.46
33288;BME280;19657;50.452;30.372;2023-06-10T07:05:54;81157.23;;;-144.73;30.76
33288;BME280;19657;50.452;30.372;2023-06-10T07:08:40;81083.37;;;-144.73;30.85
33288;BME280;19657;50.452;30.372;2023-06-10T07:11:27;81009.12;;;-144.73;30.66
33288;BME280;19657;50.452;30.372;2023-06-10T07:14:14;80976.73;;;-144.73;30.55
33288;BME280;19657;50.452;30.372;2023-06-10T07:17:00;80986.21;;;-144.73;30.68
33288;BME280;19657;50.452;30.372;2023-06-10T07:19:47;80994.11;;;-144.73;31.14
33288;BME280;19657;50.452;30.372;2023-06-10T07:22:33;80964.49;;;-144.73;30.63
33288;BME280;19657;50.452;30.372;2023-06-10T07:25:19;80958.96;;;-144.73;31.00
33288;BME280;19657;50.452;30.372;2023-06-10T07:28:05;80996.48;;;-144.73;31.06
33288;BME280;19657;50.452;30.372;2023-06-10T07:30:52;81238.59;;;-144.73;31.61
33288;BME280;19657;50.452;30.372;2023-06-10T07:33:38;81319.95;;;-144.73;32.11
33288;BME280;19657;50.452;30.372;2023-06-10T07:36:29;81568.80;;;-144.73;32.97
33288;BME280;19657;50.452;30.372;2023-06-10T07:39:15;81745.36;;;-144.73;33.67
33288;BME280;19657;50.452;30.372;2023-06-10T07:42:01;81853.98;;;-144.73;34.26
33288;BME280;19657;50.452;30.372;2023-06-10T07:44:48;81666.77;;;-144.73;34.52
33288;BME280;19657;50.452;30.372;2023-06-10T07:47:35;82096.95;;;-144.73;34.59
33288;BME280;19657;50.452;30.372;2023-06-10T07:50:21;82330.42;;;-144.73;35.98
33288;BME280;19657;50.452;30.372;2023-06-10T07:53:07;81989.89;;;-144.73;36.74
33288;BME280;19657;50.452;30.372;2023-06-10T07:55:54;81814.89;;;-144.73;35.81
33288;BME280;19657;50.452;30.372;2023-06-10T07:58:40;81664.78;;;-144.73;34.91
33288;BME280;19657;50.452;30.372;2023-06-10T08:01:26;81514.29;;;-144.73;33.87
33288;BME280;19657;50.452;30.372;2023-06-10T08:04:12;81411.20;;;-144.73;33.46
33288;BME280;19657;50.452;30.372;2023-06-10T08:06:59;81342.07;;;-144.73;32.94
33288;BME280;19657;50.452;30.372;2023-06-10T08:09:45;81360.63;;;-144.73;32.98
33288;BME280;19657;50.452;30.372;2023-06-10T08:12:32;81310.47;;;-144.73;32.90
33288;BME280;19657;50.452;30.372;2023-06-10T08:15:19;81165.91;;;-144.73;32.09
33288;BME280;19657;50.452;30.372;2023-06-10T08:18:05;81090.88;;;-144.73;31.44
33288;BME280;19657;50.452;30.372;2023-06-10T08:20:51;81223.18;;;-144.73;31.28
33288;BME280;19657;50.452;30.372;2023-06-10T08:23:37;81224.36;;;-144.73;31.67
33288;BME280;19657;50.452;30.372;2023-06-10T08:26:24;81297.84;;;-144.73;31.79
33288;BME280;19657;50.452;30.372;2023-06-10T08:29:12;81631.99;;;-144.73;32.26
33288;BME280;19657;50.452;30.372;2023-06-10T08:31:58;81733.52;;;-144.73;32.95
33288;BME280;19657;50.452;30.372;2023-06-10T08:34:45;81941.30;;;-144.73;33.80
33288;BME280;19657;50.452;30.372;2023-06-10T08:37:31;82160.94;;;-144.73;34.94
33288;BME280;19657;50.452;30.372;2023-06-10T08:40:17;82136.05;;;-144.73;35.80
33288;BME280;19657;50.452;30.372;2023-06-10T08:43:07;82003.71;;;-144.73;36.13
33288;BME280;19657;50.452;30.372;2023-06-10T08:45:57;81882.83;;;-144.73;35.49
33288;BME280;19657;50.452;30.372;2023-06-10T08:48:46;81823.98;;;-144.73;35.18
33288;BME280;19657;50.452;30.372;2023-06-10T08:51:35;81704.67;;;-144.73;34.63
33288;BME280;19657;50.452;30.372;2023-06-10T08:54:25;81900.20;;;-144.73;34.00
33288;BME280;19657;50.452;30.372;2023-06-10T08:57:13;82152.25;;;-144.73;34.76
33288;BME280;19657;50.452;30.372;2023-06-10T09:00:03;82209.92;;;-144.73;35.60
33288;BME280;19657;50.452;30.372;2023-06-10T09:02:50;82173.98;;;-144.73;36.10
33288;BME280;19657;50.452;30.372;2023-06-10T09:05:37;82217.44;;;-144.73;36.17
33288;BME280;19657;50.452;30.372;2023-06-10T09:08:24;82275.90;;;-144.73;36.31
33288;BME280;19657;50.452;30.372;2023-06-10T09:11:11;82414.98;;;-144.73;36.88
33288;BME280;19657;50.452;30.372;2023-06-10T09:13:57;82512.55;;;-144.73;37.98
33288;BME280;19657;50.452;30.372;2023-06-10T09:16:44;82536.27;;;-144.73;38.66
33288;BME280;19657;50.452;30.372;2023-06-10T09:19:32;82622.00;;;-144.73;38.60
33288;BME280;19657;50.452;30.372;2023-06-10T09:22:19;82722.36;;;-144.73;38.98
33288;BME280;19657;50.452;30.372;2023-06-10T09:25:08;82804.15;;;-144.73;39.73
33288;BME280;19657;50.452;30.372;2023-06-10T09:27:55;82833.38;;;-144.73;40.82
33288;BME280;19657;50.452;30.372;2023-06-10T09:30:42;82902.92;;;-144.73;41.80
33288;BME280;19657;50.452;30.372;2023-06-10T09:33:28;82965.75;;;-144.73;42.59
33288;BME280;19657;50.452;30.372;2023-06-10T09:36:22;83038.85;;;-144.73;42.96
33288;BME280;19657;50.452;30.372;2023-06-10T09:39:17;83057.83;;;-144.73;43.70
33288;BME280;19657;50.452;30.372;2023-06-10T09:42:16;83057.82;;;-144.73;43.74
33288;BME280;19657;50.452;30.372;2023-06-10T09:45:06;83031.35;;;-144.73;42.90
33288;BME280;19657;50.452;30.372;2023-06-10T09:47:53;83022.26;;;-144.73;42.51
33288;BME280;19657;50.452;30.372;2023-06-10T09:50:44;83007.25;;;-144.73;42.53
33288;BME280;19657;50.452;30.372;2023-06-10T09:53:33;82972.86;;;-144.73;41.85
33288;BME280;19657;50.452;30.372;2023-06-10T09:56:20;83008.83;;;-144.73;41.75
33288;BME280;19657;50.452;30.372;2023-06-10T09:59:06;83029.77;;;-144.73;42.30
33288;BME280;19657;50.452;30.372;2023-06-10T10:01:56;83030.16;;;-144.73;42.11
33288;BME280;19657;50.452;30.372;2023-06-10T10:04:43;83019.10;;;-144.73;42.16
33288;BME280;19657;50.452;30.372;2023-06-10T10:07:30;83017.13;;;-144.73;41.83
33288;BME280;19657;50.452;30.372;2023-06-10T10:10:19;83057.42;;;-144.73;42.42
33288;BME280;19657;50.452;30.372;2023-06-10T10:13:06;83038.45;;;-144.73;42.19
33288;BME280;19657;50.452;30.372;2023-06-10T10:15:53;83044.77;;;-144.73;42.06
33288;BME280;19657;50.452;30.372;2023-06-10T10:19:03;83025.42;;;-144.73;42.19
33288;BME280;19657;50.452;30.372;2023-06-10T10:22:01;83065.33;;;-144.73;41.84
33288;BME280;19657;50.452;30.372;2023-06-10T10:24:54;83092.20;;;-144.73;42.17
33288;BME280;19657;50.452;30.372;2023-06-10T10:28:08;83059.40;;;-144.73;42.15
33288;BME280;19657;50.452;30.372;2023-06-10T10:30:59;83006.85;;;-144.73;41.04
33288;BME280;19657;50.452;30.372;2023-06-10T10:33:55;82971.67;;;-144.73;40.39
33288;BME280;19657;50.452;30.372;2023-06-10T10:36:44;82932.16;;;-144.73;39.69
33288;BME280;19657;50.452;30.372;2023-06-10T10:39:34;82911.23;;;-144.73;39.03
33288;BME280;19657;50.452;30.372;2023-06-10T10:42:22;82920.31;;;-144.73;38.49
33288;BME280;19657;50.452;30.372;2023-06-10T10:45:10;82963.38;;;-144.73;38.55
33288;BME280;19657;50.452;30.372;2023-06-10T10:47:57;82957.05;;;-144.73;39.11
33288;BME280;19657;50.452;30.372;2023-06-10T10:50:56;82953.90;;;-144.73;38.89
33288;BME280;19657;50.452;30.372;2023-06-10T10:53:43;82972.08;;;-144.73;38.60
33288;BME280;19657;50.452;30.372;2023-06-10T10:56:31;82962.98;;;-144.73;38.52
33288;BME280;19657;50.452;30.372;2023-06-10T10:59:17;82880.02;;;-144.73;38.81
33288;BME280;19657;50.452;30.372;2023-06-10T11:02:06;82893.05;;;-144.73;39.04
33288;BME280;19657;50.452;30.372;2023-06-10T11:04:54;82866.97;;;-144.73;39.01
33288;BME280;19657;50.452;30.372;2023-06-10T11:07:52;82820.34;;;-144.73;37.87
33288;BME280;19657;50.452;30.372;2023-06-10T11:10:52;82807.70;;;-144.73;37.90
33288;BME280;19657;50.452;30.372;2023-06-10T11:13:58;82821.92;;;-144.73;37.72
33288;BME280;19657;50.452;30.372;2023-06-10T11:16:47;82860.64;;;-144.73;37.84
33288;BME280;19657;50.452;30.372;2023-06-10T11:19:37;82889.10;;;-144.73;37.97
33288;BME280;19657;50.452;30.372;2023-06-10T11:22:26;82906.09;;;-144.73;38.47
33288;BME280;19657;50.452;30.372;2023-06-10T11:25:14;82916.36;;;-144.73;38.37
33288;BME280;19657;50.452;30.372;2023-06-10T11:28:01;82964.56;;;-144.73;38.09
33288;BME280;19657;50.452;30.372;2023-06-10T11:30:57;82997.36;;;-144.73;38.50
33288;BME280;19657;50.452;30.372;2023-06-10T11:33:43;83052.30;;;-144.73;38.38
33288;BME280;19657;50.452;30.372;2023-06-10T11:36:30;83079.16;;;-144.73;38.46
33288;BME280;19657;50.452;30.372;2023-06-10T11:39:17;83106.82;;;-144.73;38.87
33288;BME280;19657;50.452;30.372;2023-06-10T11:42:03;83109.19;;;-144.73;39.10
33288;BME280;19657;50.452;30.372;2023-06-10T11:44:53;83126.97;;;-144.73;39.55
33288;BME280;19657;50.452;30.372;2023-06-10T11:47:40;83142.77;;;-144.73;40.03
33288;BME280;19657;50.452;30.372;2023-06-10T11:50:33;83179.13;;;-144.73;40.33
33288;BME280;19657;50.452;30.372;2023-06-10T11:53:19;83185.06;;;-144.73;40.44
33288;BME280;19657;50.452;30.372;2023-06-10T11:56:05;83168.86;;;-144.73;40.61
33288;BME280;19657;50.452;30.372;2023-06-10T11:58:53;83147.13;;;-144.73;40.88
33288;BME280;19657;50.452;30.372;2023-06-10T12:01:44;83145.94;;;-144.73;41.31
33288;BME280;19657;50.452;30.372;2023-06-10T12:04:30;83168.46;;;-144.73;41.55
33288;BME280;19657;50.452;30.372;2023-06-10T12:07:18;83185.85;;;-144.73;41.58
33288;BME280;19657;50.452;30.372;2023-06-10T12:10:05;83157.39;;;-144.73;41.67
33288;BME280;19657;50.452;30.372;2023-06-10T12:13:11;83141.59;;;-144.73;41.78
33288;BME280;19657;50.452;30.372;2023-06-10T12:16:10;83118.67;;;-144.73;41.68
33288;BME280;19657;50.452;30.372;2023-06-10T12:19:01;83143.56;;;-144.73;42.03
33288;BME280;19657;50.452;30.372;2023-06-10T12:21:48;83192.95;;;-144.73;42.64
33288;BME280;19657;50.452;30.372;2023-06-10T12:24:43;83198.49;;;-144.73;43.13
33288;BME280;19657;50.452;30.372;2023-06-10T12:27:31;83228.91;;;-144.73;43.60
33288;BME280;19657;50.452;30.372;2023-06-10T12:30:21;83249.48;;;-144.73;43.95
33288;BME280;19657;50.452;30.372;2023-06-10T12:33:21;83267.25;;;-144.73;44.16
33288;BME280;19657;50.452;30.372;2023-06-10T12:36:16;83247.10;;;-144.73;44.43
33288;BME280;19657;50.452;30.372;2023-06-10T12:39:05;83220.63;;;-144.73;44.44
33288;BME280;19657;50.452;30.372;2023-06-10T12:41:52;83236.04;;;-144.73;44.50
33288;BME280;19657;50.452;30.372;2023-06-10T12:44:39;83205.61;;;-144.73;44.47
33288;BME280;19657;50.452;30.372;2023-06-10T12:47:31;83164.91;;;-144.73;44.11
33288;BME280;19657;50.452;30.372;2023-06-10T12:50:18;83143.17;;;-144.73;43.54
33288;BME280;19657;50.452;30.372;2023-06-10T12:53:05;83111.95;;;-144.73;43.37
33288;BME280;19657;50.452;30.372;2023-06-10T12:55:51;83085.88;;;-144.73;43.50
33288;BME280;19657;50.452;30.372;2023-06-10T12:58:37;83043.20;;;-144.73;42.86
33288;BME280;19657;50.452;30.372;2023-06-10T13:01:23;83033.71;;;-144.73;42.85
33288;BME280;19657;50.452;30.372;2023-06-10T13:04:10;83009.21;;;-144.73;42.35
33288;BME280;19657;50.452;30.372;2023-06-10T13:06:57;83007.64;;;-144.73;42.21
33288;BME280;19657;50.452;30.372;2023-06-10T13:09:45;83036.48;;;-144.73;42.49
33288;BME280;19657;50.452;30.372;2023-06-10T13:12:34;83121.05;;;-144.73;42.95
33288;BME280;19657;50.452;30.372;2023-06-10T13:15:33;83233.66;;;-144.73;42.57
33288;BME280;19657;50.452;30.372;2023-06-10T13:18:27;83449.83;;;-144.73;39.71
33288;BME280;19657;50.452;30.372;2023-06-10T13:21:13;83634.38;;;-144.73;40.86
33288;BME280;19657;50.452;30.372;2023-06-10T13:23:59;83750.17;;;-144.73;42.62
33288;BME280;19657;50.452;30.372;2023-06-10T13:26:45;83844.23;;;-144.73;43.83
33288;BME280;19657;50.452;30.372;2023-06-10T13:29:32;83941.06;;;-144.73;45.97
33288;BME280;19657;50.452;30.372;2023-06-10T13:32:18;83988.49;;;-144.73;47.39
33288;BME280;19657;50.452;30.372;2023-06-10T13:35:06;84008.25;;;-144.73;47.37
33288;BME280;19657;50.452;30.372;2023-06-10T13:37:53;84031.58;;;-144.73;47.91
33288;BME280;19657;50.452;30.372;2023-06-10T13:40:39;84046.98;;;-144.73;48.47
33288;BME280;19657;50.452;30.372;2023-06-10T13:43:26;84055.69;;;-144.73;49.37
33288;BME280;19657;50.452;30.372;2023-06-10T13:46:11;84079.80;;;-144.73;51.24
33288;BME280;19657;50.452;30.372;2023-06-10T13:48:58;84133.15;;;-144.73;53.99
33288;BME280;19657;50.452;30.372;2023-06-10T13:51:44;84198.77;;;-144.73;56.99
33288;BME280;19657;50.452;30.372;2023-06-10T13:54:30;84245.41;;;-144.73;59.93
33288;BME280;19657;50.452;30.372;2023-06-10T13:57:16;84264.38;;;-144.73;62.51
33288;BME280;19657;50.452;30.372;2023-06-10T14:00:03;84292.45;;;-144.73;64.44
33288;BME280;19657;50.452;30.372;2023-06-10T14:02:49;84306.67;;;-144.73;66.32
33288;BME280;19657;50.452;30.372;2023-06-10T14:05:35;84376.24;;;-144.73;67.31
33288;BME280;19657;50.452;30.372;2023-06-10T14:08:21;84411.02;;;-144.73;68.33
33288;BME280;19657;50.452;30.372;2023-06-10T14:11:08;84430.00;;;-144.73;69.38
33288;BME280;19657;50.452;30.372;2023-06-10T14:13:54;84440.67;;;-144.73;70.69
33288;BME280;19657;50.452;30.372;2023-06-10T14:16:42;84439.48;;;-144.73;71.31
33288;BME280;19657;50.452;30.372;2023-06-10T14:19:28;84418.92;;;-144.73;71.50
33288;BME280;19657;50.452;30.372;2023-06-10T14:22:15;84390.47;;;-144.73;70.99
33288;BME280;19657;50.452;30.372;2023-06-10T14:25:01;84371.89;;;-144.73;70.17
33288;BME280;19657;50.452;30.372;2023-06-10T14:27:47;84364.39;;;-144.73;69.56